sensor_id;sensor_type;location;lat;lon;timestamp;pressure;altitude;pressure_sealevel;temperature;humidity
30081;BME280;16902;50.816;12.828;2022-09-23T00:00:15;98264.78;;;2.03;100.00
30081;BME280;16902;50.816;12.828;2022-09-23T00:05:17;98268.19;;;2.03;100.00
30081;BME280;16902;50.816;12.828;2022-09-23T00:10:19;98264.91;;;2.01;100.00
30081;BME280;16902;50.816;12.828;2022-09-23T00:15:21;98261.41;;;2.02;100.00
30081;BME280;16902;50.816;12.828;2022-09-23T00:20:22;98258.59;;;1.94;100.00
30081;BME280;16902;50.816;12.828;2022-09-23T00:25:26;98256.47;;;1.88;100.00
30081;BME280;16902;50.816;12.828;2022-09-23T00:30:33;98257.63;;;1.84;100.00
30081;BME280;16902;50.816;12.828;2022-09-23T00:35:35;98259.59;;;1.80;100.00
30081;BME280;16902;50.816;12.828;2022-09-23T00:40:43;98252.56;;;1.71;100.00
30081;BME280;16902;50.816;12.828;2022-09-23T00:45:49;98256.41;;;1.66;100.00
30081;BME280;16902;50.816;12.828;2022-09-23T00:50:54;98245.31;;;1.65;100.00
30081;BME280;16902;50.816;12.828;2022-09-23T00:56:01;98252.22;;;1.65;100.00
30081;BME280;16902;50.816;12.828;2022-09-23T01:01:04;98242.16;;;1.62;100.00
30081;BME280;16902;50.816;12.828;2022-09-23T01:06:06;98243.31;;;1.58;100.00
30081;BME280;16902;50.816;12.828;2022-09-23T01:11:22;98236.66;;;1.55;100.00
30081;BME280;16902;50.816;12.828;2022-09-23T01:26:59;98223.56;;;1.47;100.00
30081;BME280;16902;50.816;12.828;2022-09-23T01:42:49;98204.31;;;1.41;100.00
30081;BME280;16902;50.816;12.828;2022-09-23T01:47:57;98203.44;;;1.29;100.00
30081;BME280;16902;50.816;12.828;2022-09-23T01:53:06;98196.88;;;1.25;100.00
30081;BME280;16902;50.816;12.828;2022-09-23T01:58:14;98196.19;;;1.23;100.00
30081;BME280;16902;50.816;12.828;2022-09-23T02:03:27;98195.03;;;1.27;100.00
30081;BME280;16902;50.816;12.828;2022-09-23T02:08:37;98184.50;;;1.19;100.00
30081;BME280;16902;50.816;12.828;2022-09-23T02:13:49;98184.50;;;1.19;100.00
30081;BME280;16902;50.816;12.828;2022-09-23T02:19:07;98185.16;;;1.10;100.00
30081;BME280;16902;50.816;12.828;2022-09-23T02:24:17;98180.34;;;1.06;100.00
30081;BME280;16902;50.816;12.828;2022-09-23T02:34:45;98173.41;;;1.08;100.00
30081;BME280;16902;50.816;12.828;2022-09-23T02:40:19;98178.72;;;1.05;100.00
30081;BME280;16902;50.816;12.828;2022-09-23T02:45:23;98168.81;;;1.00;100.00
30081;BME280;16902;50.816;12.828;2022-09-23T02:50:25;98162.66;;;1.02;100.00
30081;BME280;16902;50.816;12.828;2022-09-23T02:55:30;98168.00;;;0.99;100.00
30081;BME280;16902;50.816;12.828;2022-09-23T03:05:56;98160.41;;;0.98;100.00
30081;BME280;16902;50.816;12.828;2022-09-23T03:11:04;98152.13;;;0.94;100.00
30081;BME280;16902;50.816;12.828;2022-09-23T03:26:36;98144.47;;;0.82;100.00
30081;BME280;16902;50.816;12.828;2022-09-23T03:31:41;98136.09;;;0.80;100.00
30081;BME280;16902;50.816;12.828;2022-09-23T03:36:55;98137.03;;;0.79;100.00
30081;BME280;16902;50.816;12.828;2022-09-23T03:42:07;98134.19;;;0.70;100.00
30081;BME280;16902;50.816;12.828;2022-09-23T03:47:17;98131.31;;;0.62;100.00
30081;BME280;16902;50.816;12.828;2022-09-23T03:52:21;98126.13;;;0.64;100.00
30081;BME280;16902;50.816;12.828;2022-09-23T03:57:23;98128.06;;;0.60;100.00
30081;BME280;16902;50.816;12.828;2022-09-23T04:02:26;98121.09;;;0.62;100.00
30081;BME280;16902;50.816;12.828;2022-09-23T04:07:28;98118.75;;;0.59;100.00
30081;BME280;16902;50.816;12.828;2022-09-23T04:12:30;98118.97;;;0.56;100.00
30081;BME280;16902;50.816;12.828;2022-09-23T04:17:32;98110.56;;;0.54;100.00
30081;BME280;16902;50.816;12.828;2022-09-23T04:22:34;98110.56;;;0.54;100.00
30081;BME280;16902;50.816;12.828;2022-09-23T04:27:39;98109.28;;;0.48;100.00
30081;BME280;16902;50.816;12.828;2022-09-23T04:32:40;98097.47;;;0.46;100.00
30081;BME280;16902;50.816;12.828;2022-09-23T04:37:42;98097.28;;;0.49;100.00
30081;BME280;16902;50.816;12.828;2022-09-23T04:42:44;98098.50;;;0.43;100.00
30081;BME280;16902;50.816;12.828;2022-09-23T04:47:46;98099.09;;;0.47;100.00
30081;BME280;16902;50.816;12.828;2022-09-23T04:52:47;98099.22;;;0.45;100.00
30081;BME280;16902;50.816;12.828;2022-09-23T04:57:49;98097.81;;;0.41;100.00
30081;BME280;16902;50.816;12.828;2022-09-23T05:02:51;98099.91;;;0.47;100.00
30081;BME280;16902;50.816;12.828;2022-09-23T05:07:56;98102.59;;;0.46;100.00
30081;BME280;16902;50.816;12.828;2022-09-23T05:12:58;98104.53;;;0.55;100.00
30081;BME280;16902;50.816;12.828;2022-09-23T05:18:00;98107.44;;;0.62;100.00
30081;BME280;16902;50.816;12.828;2022-09-23T05:23:03;98100.06;;;0.70;100.00
30081;BME280;16902;50.816;12.828;2022-09-23T05:28:04;98089.59;;;0.73;100.00
30081;BME280;16902;50.816;12.828;2022-09-23T05:33:07;98098.94;;;0.85;100.00
30081;BME280;16902;50.816;12.828;2022-09-23T05:38:09;98101.19;;;0.90;100.00
30081;BME280;16902;50.816;12.828;2022-09-23T05:43:10;98104.84;;;0.98;100.00
30081;BME280;16902;50.816;12.828;2022-09-23T05:48:15;98105.25;;;1.16;100.00
30081;BME280;16902;50.816;12.828;2022-09-23T05:53:17;98100.50;;;1.34;100.00
30081;BME280;16902;50.816;12.828;2022-09-23T05:58:19;98093.53;;;1.59;100.00
30081;BME280;16902;50.816;12.828;2022-09-23T06:03:23;98097.88;;;1.80;100.00
30081;BME280;16902;50.816;12.828;2022-09-23T06:08:25;98095.69;;;1.98;100.00
30081;BME280;16902;50.816;12.828;2022-09-23T06:13:27;98097.25;;;2.22;100.00
30081;BME280;16902;50.816;12.828;2022-09-23T06:18:29;98100.41;;;2.48;100.00
30081;BME280;16902;50.816;12.828;2022-09-23T06:23:31;98094.13;;;2.73;100.00
30081;BME280;16902;50.816;12.828;2022-09-23T06:28:37;98098.25;;;2.96;100.00
30081;BME280;16902;50.816;12.828;2022-09-23T06:33:44;98097.28;;;3.29;100.00
30081;BME280;16902;50.816;12.828;2022-09-23T06:38:46;98089.22;;;3.65;100.00
30081;BME280;16902;50.816;12.828;2022-09-23T06:43:49;98092.47;;;3.97;100.00
30081;BME280;16902;50.816;12.828;2022-09-23T06:48:51;98089.72;;;4.29;100.00
30081;BME280;16902;50.816;12.828;2022-09-23T06:53:53;98095.63;;;4.60;100.00
30081;BME280;16902;50.816;12.828;2022-09-23T06:58:56;98092.25;;;4.89;100.00
30081;BME280;16902;50.816;12.828;2022-09-23T07:03:58;98095.09;;;5.15;100.00
30081;BME280;16902;50.816;12.828;2022-09-23T07:09:01;98100.38;;;5.43;100.00
30081;BME280;16902;50.816;12.828;2022-09-23T07:14:03;98103.28;;;5.77;100.00
30081;BME280;16902;50.816;12.828;2022-09-23T07:19:07;98105.47;;;6.09;100.00
30081;BME280;16902;50.816;12.828;2022-09-23T07:24:09;98107.88;;;6.48;100.00
30081;BME280;16902;50.816;12.828;2022-09-23T07:29:12;98102.31;;;6.88;100.00
30081;BME280;16902;50.816;12.828;2022-09-23T07:34:14;98101.19;;;7.26;100.00
30081;BME280;16902;50.816;12.828;2022-09-23T07:39:16;98094.31;;;7.61;100.00
30081;BME280;16902;50.816;12.828;2022-09-23T07:44:18;98097.22;;;7.92;100.00
30081;BME280;16902;50.816;12.828;2022-09-23T07:49:22;98104.94;;;8.44;100.00
30081;BME280;16902;50.816;12.828;2022-09-23T07:54:24;98100.31;;;8.88;100.00
30081;BME280;16902;50.816;12.828;2022-09-23T07:59:30;98097.09;;;9.35;100.00
30081;BME280;16902;50.816;12.828;2022-09-23T08:04:32;98109.34;;;9.90;100.00
30081;BME280;16902;50.816;12.828;2022-09-23T08:09:40;98109.75;;;10.18;100.00
30081;BME280;16902;50.816;12.828;2022-09-23T08:14:43;98105.56;;;10.57;100.00
30081;BME280;16902;50.816;12.828;2022-09-23T08:19:45;98106.16;;;11.36;100.00
30081;BME280;16902;50.816;12.828;2022-09-23T08:24:46;98100.88;;;11.96;100.00
30081;BME280;16902;50.816;12.828;2022-09-23T08:29:48;98099.22;;;12.40;100.00
30081;BME280;16902;50.816;12.828;2022-09-23T08:34:50;98101.38;;;12.87;100.00
30081;BME280;16902;50.816;12.828;2022-09-23T08:39:52;98094.41;;;13.16;100.00
30081;BME280;16902;50.816;12.828;2022-09-23T08:44:59;98085.22;;;13.48;100.00
30081;BME280;16902;50.816;12.828;2022-09-23T08:50:07;98087.69;;;13.84;100.00
30081;BME280;16902;50.816;12.828;2022-09-23T08:55:13;98086.22;;;14.09;100.00
30081;BME280;16902;50.816;12.828;2022-09-23T09:00:19;98083.75;;;14.43;100.00
30081;BME280;16902;50.816;12.828;2022-09-23T09:05:25;98084.00;;;14.48;100.00
30081;BME280;16902;50.816;12.828;2022-09-23T09:10:34;98079.88;;;14.80;100.00
30081;BME280;16902;50.816;12.828;2022-09-23T09:15:47;98080.09;;;15.18;100.00
30081;BME280;16902;50.816;12.828;2022-09-23T09:26:32;98087.75;;;15.00;100.00
30081;BME280;16902;50.816;12.828;2022-09-23T09:31:37;98076.63;;;14.23;100.00
30081;BME280;16902;50.816;12.828;2022-09-23T09:41:49;98073.84;;;15.52;100.00
30081;BME280;16902;50.816;12.828;2022-09-23T09:57:51;98054.69;;;15.72;100.00
30081;BME280;16902;50.816;12.828;2022-09-23T10:03:00;98047.41;;;15.67;100.00
30081;BME280;16902;50.816;12.828;2022-09-23T10:13:24;98041.00;;;16.21;100.00
30081;BME280;16902;50.816;12.828;2022-09-23T10:23:54;98024.13;;;17.30;100.00
30081;BME280;16902;50.816;12.828;2022-09-23T10:29:23;98024.78;;;16.69;100.00
30081;BME280;16902;50.816;12.828;2022-09-23T10:34:26;98016.59;;;16.07;100.00
30081;BME280;16902;50.816;12.828;2022-09-23T10:39:29;98021.72;;;15.82;100.00
30081;BME280;16902;50.816;12.828;2022-09-23T10:44:58;98018.50;;;15.80;100.00
30081;BME280;16902;50.816;12.828;2022-09-23T10:50:38;98011.53;;;16.51;100.00
30081;BME280;16902;50.816;12.828;2022-09-23T10:56:13;98005.25;;;18.13;100.00
30081;BME280;16902;50.816;12.828;2022-09-23T11:01:43;98005.09;;;21.28;83.52
30081;BME280;16902;50.816;12.828;2022-09-23T11:07:53;97996.97;;;22.35;61.18
30081;BME280;16902;50.816;12.828;2022-09-23T11:13:01;97988.34;;;22.22;64.56
30081;BME280;16902;50.816;12.828;2022-09-23T11:38:58;97972.16;;;19.01;62.52
30081;BME280;16902;50.816;12.828;2022-09-23T11:44:06;97953.38;;;17.95;70.64
30081;BME280;16902;50.816;12.828;2022-09-23T11:49:25;97950.69;;;19.68;64.06
30081;BME280;16902;50.816;12.828;2022-09-23T11:55:10;97954.59;;;22.77;64.28
30081;BME280;16902;50.816;12.828;2022-09-23T12:00:24;97942.66;;;22.15;57.39
30081;BME280;16902;50.816;12.828;2022-09-23T12:05:34;97942.59;;;22.37;57.60
30081;BME280;16902;50.816;12.828;2022-09-23T12:26:53;97922.66;;;20.24;61.77
30081;BME280;16902;50.816;12.828;2022-09-23T12:31:58;97914.88;;;19.60;60.61
30081;BME280;16902;50.816;12.828;2022-09-23T12:37:02;97924.09;;;21.49;54.75
30081;BME280;16902;50.816;12.828;2022-09-23T12:42:12;97916.91;;;22.43;55.39
30081;BME280;16902;50.816;12.828;2022-09-23T12:52:32;97921.09;;;24.18;45.45
30081;BME280;16902;50.816;12.828;2022-09-23T13:08:18;97896.31;;;24.02;46.13
30081;BME280;16902;50.816;12.828;2022-09-23T13:13:40;97884.94;;;24.63;43.64
30081;BME280;16902;50.816;12.828;2022-09-23T13:29:37;97868.31;;;28.88;35.29
30081;BME280;16902;50.816;12.828;2022-09-23T13:34:43;97858.19;;;26.28;39.50
30081;BME280;16902;50.816;12.828;2022-09-23T13:39:47;97856.53;;;28.24;37.30
30081;BME280;16902;50.816;12.828;2022-09-23T13:44:50;97851.34;;;28.47;37.19
30081;BME280;16902;50.816;12.828;2022-09-23T13:49:56;97834.88;;;27.64;39.30
30081;BME280;16902;50.816;12.828;2022-09-23T13:54:58;97833.78;;;26.11;42.38
30081;BME280;16902;50.816;12.828;2022-09-23T14:00:16;97819.97;;;23.09;44.96
30081;BME280;16902;50.816;12.828;2022-09-23T14:05:24;97816.31;;;21.77;47.83
30081;BME280;16902;50.816;12.828;2022-09-23T14:10:26;97811.47;;;20.14;56.45
30081;BME280;16902;50.816;12.828;2022-09-23T14:15:28;97807.78;;;18.89;64.81
30081;BME280;16902;50.816;12.828;2022-09-23T14:20:31;97801.81;;;18.58;68.90
30081;BME280;16902;50.816;12.828;2022-09-23T14:25:35;97800.78;;;18.24;72.56
30081;BME280;16902;50.816;12.828;2022-09-23T14:30:37;97793.22;;;18.39;73.45
30081;BME280;16902;50.816;12.828;2022-09-23T14:35:41;97794.13;;;18.33;80.81
30081;BME280;16902;50.816;12.828;2022-09-23T14:45:55;97786.97;;;17.98;86.91
30081;BME280;16902;50.816;12.828;2022-09-23T14:51:03;97773.84;;;18.69;76.69
30081;BME280;16902;50.816;12.828;2022-09-23T14:56:15;97769.50;;;18.63;73.95
30081;BME280;16902;50.816;12.828;2022-09-23T15:06:35;97771.44;;;18.44;77.61
30081;BME280;16902;50.816;12.828;2022-09-23T15:11:38;97767.41;;;18.06;76.36
30081;BME280;16902;50.816;12.828;2022-09-23T15:16:40;97765.63;;;17.16;93.43
30081;BME280;16902;50.816;12.828;2022-09-23T15:21:44;97762.03;;;15.81;100.00
30081;BME280;16902;50.816;12.828;2022-09-23T15:26:48;97762.50;;;15.33;100.00
30081;BME280;16902;50.816;12.828;2022-09-23T15:31:53;97750.53;;;14.99;100.00
30081;BME280;16902;50.816;12.828;2022-09-23T15:36:56;97753.56;;;15.02;100.00
30081;BME280;16902;50.816;12.828;2022-09-23T15:41:57;97744.38;;;15.25;100.00
30081;BME280;16902;50.816;12.828;2022-09-23T15:47:02;97742.88;;;14.97;100.00
30081;BME280;16902;50.816;12.828;2022-09-23T15:52:05;97741.13;;;14.84;100.00
30081;BME280;16902;50.816;12.828;2022-09-23T15:57:14;97737.75;;;14.64;100.00
30081;BME280;16902;50.816;12.828;2022-09-23T16:02:21;97729.34;;;14.29;100.00
30081;BME280;16902;50.816;12.828;2022-09-23T16:07:24;97728.16;;;14.05;100.00
30081;BME280;16902;50.816;12.828;2022-09-23T16:12:26;97730.13;;;13.63;100.00
30081;BME280;16902;50.816;12.828;2022-09-23T16:17:28;97728.50;;;13.35;100.00
30081;BME280;16902;50.816;12.828;2022-09-23T16:22:30;97728.75;;;12.99;100.00
30081;BME280;16902;50.816;12.828;2022-09-23T16:27:31;97726.41;;;12.63;100.00
30081;BME280;16902;50.816;12.828;2022-09-23T16:32:34;97730.22;;;12.32;100.00
30081;BME280;16902;50.816;12.828;2022-09-23T16:37:36;97718.19;;;12.03;100.00
30081;BME280;16902;50.816;12.828;2022-09-23T16:42:38;97720.50;;;11.70;100.00
30081;BME280;16902;50.816;12.828;2022-09-23T16:47:43;97716.78;;;11.37;100.00
30081;BME280;16902;50.816;12.828;2022-09-23T16:52:45;97722.66;;;11.24;100.00
30081;BME280;16902;50.816;12.828;2022-09-23T16:57:47;97719.75;;;10.97;100.00
30081;BME280;16902;50.816;12.828;2022-09-23T17:02:49;97712.97;;;10.67;100.00
30081;BME280;16902;50.816;12.828;2022-09-23T17:08:14;97706.72;;;10.32;100.00
30081;BME280;16902;50.816;12.828;2022-09-23T17:13:16;97710.94;;;9.95;100.00
30081;BME280;16902;50.816;12.828;2022-09-23T17:18:18;97707.84;;;9.76;100.00
30081;BME280;16902;50.816;12.828;2022-09-23T17:23:21;97707.03;;;9.76;100.00
30081;BME280;16902;50.816;12.828;2022-09-23T17:28:23;97703.31;;;9.56;100.00
30081;BME280;16902;50.816;12.828;2022-09-23T17:33:26;97706.78;;;9.25;100.00
30081;BME280;16902;50.816;12.828;2022-09-23T17:38:28;97705.03;;;9.17;100.00
30081;BME280;16902;50.816;12.828;2022-09-23T17:43:30;97708.44;;;8.95;100.00
30081;BME280;16902;50.816;12.828;2022-09-23T17:48:35;97710.78;;;8.73;100.00
30081;BME280;16902;50.816;12.828;2022-09-23T17:53:38;97708.75;;;8.61;100.00
30081;BME280;16902;50.816;12.828;2022-09-23T17:58:41;97719.31;;;8.51;100.00
30081;BME280;16902;50.816;12.828;2022-09-23T18:03:43;97719.97;;;8.45;100.00
30081;BME280;16902;50.816;12.828;2022-09-23T18:08:48;97715.28;;;8.40;100.00
30081;BME280;16902;50.816;12.828;2022-09-23T18:13:55;97714.50;;;8.32;100.00
30081;BME280;16902;50.816;12.828;2022-09-23T18:18:59;97709.63;;;8.20;100.00
30081;BME280;16902;50.816;12.828;2022-09-23T18:24:01;97708.69;;;8.13;100.00
30081;BME280;16902;50.816;12.828;2022-09-23T18:29:23;97706.41;;;8.10;100.00
30081;BME280;16902;50.816;12.828;2022-09-23T18:34:25;97710.31;;;8.06;100.00
30081;BME280;16902;50.816;12.828;2022-09-23T18:39:27;97709.84;;;7.94;100.00
30081;BME280;16902;50.816;12.828;2022-09-23T18:44:29;97701.59;;;7.83;100.00
30081;BME280;16902;50.816;12.828;2022-09-23T18:49:31;97700.31;;;7.70;100.00
30081;BME280;16902;50.816;12.828;2022-09-23T18:54:52;97706.47;;;7.53;100.00
30081;BME280;16902;50.816;12.828;2022-09-23T18:59:55;97707.44;;;7.36;100.00
30081;BME280;16902;50.816;12.828;2022-09-23T19:04:57;97716.00;;;7.28;100.00
30081;BME280;16902;50.816;12.828;2022-09-23T19:09:59;97716.13;;;7.18;100.00
30081;BME280;16902;50.816;12.828;2022-09-23T19:15:02;97724.03;;;7.09;100.00
30081;BME280;16902;50.816;12.828;2022-09-23T19:20:05;97718.88;;;7.09;100.00
30081;BME280;16902;50.816;12.828;2022-09-23T19:25:07;97727.78;;;7.14;100.00
30081;BME280;16902;50.816;12.828;2022-09-23T19:30:09;97718.09;;;7.16;100.00
30081;BME280;16902;50.816;12.828;2022-09-23T19:35:12;97721.47;;;7.25;100.00
30081;BME280;16902;50.816;12.828;2022-09-23T19:40:16;97723.75;;;7.28;100.00
30081;BME280;16902;50.816;12.828;2022-09-23T19:45:19;97726.03;;;7.23;100.00
30081;BME280;16902;50.816;12.828;2022-09-23T19:50:22;97721.97;;;7.12;100.00
30081;BME280;16902;50.816;12.828;2022-09-23T19:55:24;97715.47;;;7.08;100.00
30081;BME280;16902;50.816;12.828;2022-09-23T20:00:26;97722.72;;;7.05;100.00
30081;BME280;16902;50.816;12.828;2022-09-23T20:05:28;97720.31;;;7.03;100.00
30081;BME280;16902;50.816;12.828;2022-09-23T20:10:30;97717.09;;;7.01;100.00
30081;BME280;16902;50.816;12.828;2022-09-23T20:15:32;97709.16;;;7.03;100.00
30081;BME280;16902;50.816;12.828;2022-09-23T20:20:35;97711.41;;;7.06;100.00
30081;BME280;16902;50.816;12.828;2022-09-23T20:25:37;97697.84;;;7.12;100.00
30081;BME280;16902;50.816;12.828;2022-09-23T20:30:57;97694.75;;;7.08;100.00
30081;BME280;16902;50.816;12.828;2022-09-23T20:35:59;97696.84;;;7.05;100.00
30081;BME280;16902;50.816;12.828;2022-09-23T20:41:02;97684.25;;;7.10;100.00
30081;BME280;16902;50.816;12.828;2022-09-23T20:46:04;97681.69;;;7.18;100.00
30081;BME280;16902;50.816;12.828;2022-09-23T20:51:06;97680.06;;;7.25;100.00
30081;BME280;16902;50.816;12.828;2022-09-23T20:56:09;97687.00;;;7.25;100.00
30081;BME280;16902;50.816;12.828;2022-09-23T21:01:10;97688.97;;;7.22;100.00
30081;BME280;16902;50.816;12.828;2022-09-23T21:06:15;97679.09;;;7.18;100.00
30081;BME280;16902;50.816;12.828;2022-09-23T21:11:17;97680.56;;;7.20;100.00
30081;BME280;16902;50.816;12.828;2022-09-23T21:16:20;97674.06;;;7.25;100.00
30081;BME280;16902;50.816;12.828;2022-09-23T21:21:26;97671.34;;;7.26;100.00
30081;BME280;16902;50.816;12.828;2022-09-23T21:26:28;97672.44;;;7.15;100.00
30081;BME280;16902;50.816;12.828;2022-09-23T21:31:32;97666.28;;;7.08;100.00
30081;BME280;16902;50.816;12.828;2022-09-23T21:36:36;97666.94;;;7.02;100.00
30081;BME280;16902;50.816;12.828;2022-09-23T21:41:39;97672.91;;;7.03;100.00
30081;BME280;16902;50.816;12.828;2022-09-23T21:46:40;97678.25;;;7.01;100.00
30081;BME280;16902;50.816;12.828;2022-09-23T21:51:42;97674.03;;;7.00;100.00
30081;BME280;16902;50.816;12.828;2022-09-23T21:56:44;97673.06;;;6.93;100.00
30081;BME280;16902;50.816;12.828;2022-09-23T22:01:46;97668.53;;;6.95;100.00
30081;BME280;16902;50.816;12.828;2022-09-23T22:06:54;97668.03;;;7.00;100.00
30081;BME280;16902;50.816;12.828;2022-09-23T22:11:56;97667.75;;;7.03;100.00
30081;BME280;16902;50.816;12.828;2022-09-23T22:17:10;97663.69;;;7.00;100.00
30081;BME280;16902;50.816;12.828;2022-09-23T22:22:16;97658.03;;;6.97;100.00
30081;BME280;16902;50.816;12.828;2022-09-23T22:27:19;97657.06;;;6.98;100.00
30081;BME280;16902;50.816;12.828;2022-09-23T22:32:21;97653.97;;;6.94;100.00
30081;BME280;16902;50.816;12.828;2022-09-23T22:37:42;97654.78;;;6.94;100.00
30081;BME280;16902;50.816;12.828;2022-09-23T22:42:44;97647.00;;;6.86;100.00
30081;BME280;16902;50.816;12.828;2022-09-23T22:47:46;97643.94;;;6.83;100.00
30081;BME280;16902;50.816;12.828;2022-09-23T22:52:49;97650.56;;;6.77;100.00
30081;BME280;16902;50.816;12.828;2022-09-23T22:57:51;97643.09;;;6.74;100.00
30081;BME280;16902;50.816;12.828;2022-09-23T23:02:53;97646.47;;;6.66;100.00
30081;BME280;16902;50.816;12.828;2022-09-23T23:07:55;97639.16;;;6.54;100.00
30081;BME280;16902;50.816;12.828;2022-09-23T23:12:58;97640.09;;;6.44;100.00
30081;BME280;16902;50.816;12.828;2022-09-23T23:17:59;97641.53;;;6.39;100.00
30081;BME280;16902;50.816;12.828;2022-09-23T23:23:01;97628.75;;;6.29;100.00
30081;BME280;16902;50.816;12.828;2022-09-23T23:28:03;97638.41;;;6.27;100.00
30081;BME280;16902;50.816;12.828;2022-09-23T23:33:06;97630.47;;;6.21;100.00
30081;BME280;16902;50.816;12.828;2022-09-23T23:38:08;97619.75;;;6.07;100.00
30081;BME280;16902;50.816;12.828;2022-09-23T23:43:13;97611.47;;;5.96;100.00
30081;BME280;16902;50.816;12.828;2022-09-23T23:48:15;97611.53;;;5.86;100.00
30081;BME280;16902;50.816;12.828;2022-09-23T23:53:17;97612.13;;;5.80;100.00
30081;BME280;16902;50.816;12.828;2022-09-23T23:58:19;97608.72;;;5.71;100.00
